Time;durP1;ratioP1;P1;durP2;ratioP2;P2;SDS_P1;SDS_P2;PMS_P1;PMS_P2;Temp;Humidity;BMP_temperature;BMP_pressure;BME280_temperature;BME280_humidity;BME280_pressure;Samples;Min_cycle;Max_cycle;Signal;HPM_P1;HPM_P2
2022/12/04 00:01:07;;;;;;;18.67;10.88;;;2.60;1.00;;;;;;5036764;28;20115;-80
2022/12/04 00:03:33;;;;;;;17.95;11.77;;;2.50;1.00;;;;;;5053278;28;20053;-80
2022/12/04 00:06:13;;;;;;;18.30;11.45;;;2.60;1.00;;;;;;5058590;28;20025;-80
2022/12/04 00:08:40;;;;;;;16.83;9.93;;;2.50;1.00;;;;;;5055309;28;20041;-79
2022/12/04 00:11:08;;;;;;;19.67;11.45;;;2.60;1.00;;;;;;5054115;28;20512;-79
2022/12/04 00:13:36;;;;;;;19.00;11.13;;;2.60;1.00;;;;;;5035771;28;20052;-80
2022/12/04 00:16:11;;;;;;;18.77;10.93;;;2.60;1.00;;;;;;5054252;28;20125;-79
2022/12/04 00:18:38;;;;;;;16.50;10.40;;;2.50;1.00;;;;;;5054471;28;20118;-80
2022/12/04 00:21:07;;;;;;;16.67;10.23;;;2.50;1.00;;;;;;5053941;28;20040;-80
2022/12/04 00:23:34;;;;;;;14.75;9.02;;;2.50;1.00;;;;;;5052910;28;20032;-79
2022/12/04 00:26:08;;;;;;;17.98;10.48;;;2.50;1.00;;;;;;5053954;28;20466;-79
2022/12/04 00:28:35;;;;;;;15.30;9.55;;;2.50;1.00;;;;;;5054383;28;20040;-79
2022/12/04 00:31:06;;;;;;;17.67;10.93;;;2.50;1.00;;;;;;5053749;28;20462;-81
2022/12/04 00:33:32;;;;;;;15.45;9.38;;;2.50;1.00;;;;;;5052932;28;20041;-82
2022/12/04 00:36:00;;;;;;;19.10;11.05;;;2.50;1.00;;;;;;5036068;28;20025;-83
2022/12/04 00:38:27;;;;;;;16.15;9.85;;;2.50;1.00;;;;;;5054310;28;20036;-83
2022/12/04 00:40:53;;;;;;;13.80;9.40;;;2.40;1.00;;;;;;5054083;28;20032;-82
2022/12/04 00:43:21;;;;;;;15.45;9.52;;;2.40;1.00;;;;;;5054974;28;20052;-82
2022/12/04 00:45:47;;;;;;;15.80;10.48;;;2.40;1.00;;;;;;5054227;28;20167;-82
2022/12/04 00:48:13;;;;;;;18.73;9.88;;;2.40;1.00;;;;;;5031472;28;20034;-83
2022/12/04 00:50:40;;;;;;;18.80;11.25;;;2.40;1.00;;;;;;5054071;28;20052;-82
2022/12/04 00:53:06;;;;;;;18.10;10.70;;;2.40;1.00;;;;;;5052100;28;20044;-82
2022/12/04 00:55:32;;;;;;;15.68;9.50;;;2.40;1.00;;;;;;5053821;28;20040;-83
2022/12/04 00:57:58;;;;;;;18.77;9.82;;;2.30;1.00;;;;;;5056982;28;20029;-81
2022/12/04 01:00:25;;;;;;;17.35;9.45;;;2.30;1.00;;;;;;5054368;28;20032;-82
2022/12/04 01:02:51;;;;;;;15.50;9.70;;;2.30;1.00;;;;;;5051460;28;20379;-81
2022/12/04 01:05:17;;;;;;;20.20;10.00;;;2.40;1.00;;;;;;5053988;28;20587;-81
2022/12/04 01:07:43;;;;;;;17.35;9.77;;;2.30;1.00;;;;;;5048835;28;20040;-82
2022/12/04 01:10:11;;;;;;;15.43;8.88;;;2.40;1.00;;;;;;5058202;28;20398;-83
2022/12/04 01:12:37;;;;;;;17.35;10.52;;;2.30;1.00;;;;;;5056717;28;20036;-81
2022/12/04 01:15:04;;;;;;;17.38;10.13;;;2.30;1.00;;;;;;5069609;28;20041;-83
2022/12/04 01:17:30;;;;;;;17.45;9.50;;;2.30;1.00;;;;;;5072818;28;20037;-82
2022/12/04 01:19:56;;;;;;;17.50;10.18;;;2.30;1.00;;;;;;5055010;28;20040;-83
2022/12/04 01:22:23;;;;;;;16.13;10.70;;;2.30;1.00;;;;;;5052876;28;20045;-80
2022/12/04 01:24:49;;;;;;;17.80;10.80;;;2.20;1.00;;;;;;5052954;28;20045;-82
2022/12/04 01:27:15;;;;;;;17.45;10.55;;;2.30;1.00;;;;;;5053450;28;20029;-82
2022/12/04 01:29:41;;;;;;;17.20;10.57;;;2.30;1.00;;;;;;5053262;28;20055;-82
2022/12/04 01:32:07;;;;;;;19.70;12.48;;;2.30;1.00;;;;;;5035002;28;20044;-82
2022/12/04 01:34:35;;;;;;;18.85;10.40;;;2.30;1.00;;;;;;5051909;28;20404;-82
2022/12/04 01:37:01;;;;;;;16.98;10.05;;;2.30;1.00;;;;;;5052893;28;20044;-83
2022/12/04 01:39:27;;;;;;;20.17;9.32;;;2.30;1.00;;;;;;5053402;28;20025;-82
2022/12/04 01:41:53;;;;;;;16.73;9.80;;;2.30;1.00;;;;;;5063151;28;20020;-83
2022/12/04 01:44:22;;;;;;;16.98;10.48;;;2.30;1.00;;;;;;5053984;28;20037;-82
2022/12/04 01:46:57;;;;;;;19.42;11.27;;;2.30;1.00;;;;;;5054792;28;20362;-83
2022/12/04 01:49:42;;;;;;;19.15;11.90;;;2.20;1.00;;;;;;5058560;28;20047;-80
2022/12/04 01:52:08;;;;;;;19.92;10.65;;;2.30;1.00;;;;;;5054734;28;20036;-82
2022/12/04 01:54:38;;;;;;;17.70;10.60;;;2.20;1.00;;;;;;5050956;28;20036;-80
2022/12/04 01:57:13;;;;;;;18.43;10.77;;;2.20;1.00;;;;;;5052601;28;20036;-83
2022/12/04 01:59:44;;;;;;;18.38;11.35;;;2.20;1.00;;;;;;5052834;28;20373;-83
2022/12/04 02:02:14;;;;;;;21.48;10.32;;;2.20;1.00;;;;;;5051818;28;20057;-82
2022/12/04 02:04:42;;;;;;;17.77;9.98;;;2.20;1.00;;;;;;5050820;28;20036;-81
2022/12/04 02:07:09;;;;;;;20.15;10.98;;;2.20;1.00;;;;;;5051152;28;20047;-81
2022/12/04 02:09:38;;;;;;;17.77;11.13;;;2.30;1.00;;;;;;5034169;28;20413;-84
2022/12/04 02:12:39;;;;;;;17.52;10.27;;;2.20;1.00;;;;;;5051072;28;20482;-82
2022/12/04 02:15:15;;;;;;;14.50;7.75;;;2.30;1.00;;;;;;5051277;28;20037;-83
2022/12/04 02:17:55;;;;;;;23.55;13.02;;;2.20;1.00;;;;;;5051688;28;20025;-84
2022/12/04 02:20:35;;;;;;;21.98;12.07;;;2.20;1.00;;;;;;5051495;28;20508;-82
2022/12/04 02:23:43;;;;;;;18.77;11.85;;;2.30;1.00;;;;;;5049341;28;20033;-83
2022/12/04 02:26:14;;;;;;;21.58;12.40;;;2.20;1.00;;;;;;5051227;28;20025;-82
2022/12/04 02:29:01;;;;;;;22.08;11.95;;;2.20;1.00;;;;;;5051744;28;20033;-83
2022/12/04 02:31:32;;;;;;;19.90;11.80;;;2.30;1.00;;;;;;5029476;28;20060;-86
2022/12/04 02:34:07;;;;;;;21.90;12.05;;;2.20;1.00;;;;;;5049392;28;20390;-83
2022/12/04 02:36:43;;;;;;;19.75;11.55;;;2.30;1.00;;;;;;5051416;28;20033;-82
2022/12/04 02:39:23;;;;;;;20.02;12.27;;;2.30;1.00;;;;;;5051388;28;20033;-83
2022/12/04 02:41:58;;;;;;;24.02;13.82;;;2.20;1.00;;;;;;5035152;28;20116;-83
2022/12/04 02:44:38;;;;;;;22.00;11.75;;;2.30;1.00;;;;;;5050335;28;20037;-82
2022/12/04 02:47:11;;;;;;;23.65;12.75;;;2.30;1.00;;;;;;5050670;28;20096;-82
2022/12/04 02:49:43;;;;;;;23.55;12.27;;;2.30;1.00;;;;;;5051223;28;20044;-82
2022/12/04 02:52:13;;;;;;;22.77;12.00;;;2.30;1.00;;;;;;5050473;28;20036;-83
2022/12/04 02:54:44;;;;;;;19.50;10.55;;;2.30;1.00;;;;;;5050158;28;20040;-83
2022/12/04 02:57:20;;;;;;;20.77;11.32;;;2.30;1.00;;;;;;5050588;28;20037;-80
2022/12/04 02:59:49;;;;;;;20.83;11.95;;;2.30;1.00;;;;;;5050144;28;20048;-82
2022/12/04 03:02:27;;;;;;;22.00;12.65;;;2.30;1.00;;;;;;4985833;28;1063962;-81
2022/12/04 03:04:56;;;;;;;20.05;11.93;;;2.20;1.00;;;;;;5010999;28;20050;-81
2022/12/04 03:07:42;;;;;;;21.05;11.40;;;2.30;1.00;;;;;;5017578;28;20037;-82
2022/12/04 03:10:17;;;;;;;19.05;11.00;;;2.20;1.00;;;;;;5016455;28;20371;-79
2022/12/04 03:12:56;;;;;;;20.55;10.18;;;2.20;1.00;;;;;;5014776;28;20045;-79
2022/12/04 03:15:31;;;;;;;21.80;11.50;;;2.20;1.00;;;;;;5016709;28;20414;-80
2022/12/04 03:18:15;;;;;;;19.85;11.90;;;2.20;1.00;;;;;;5016524;28;20052;-79
2022/12/04 03:20:44;;;;;;;18.67;10.43;;;2.20;1.00;;;;;;5018281;28;20034;-80
2022/12/04 03:23:16;;;;;;;21.50;12.20;;;2.20;1.00;;;;;;5014996;28;20126;-81
2022/12/04 03:26:12;;;;;;;18.55;11.00;;;2.20;1.00;;;;;;5017459;28;20030;-80
2022/12/04 03:28:51;;;;;;;18.73;11.48;;;2.20;1.00;;;;;;5012643;28;20045;-82
2022/12/04 03:31:29;;;;;;;22.42;12.90;;;2.20;1.00;;;;;;5017824;28;20038;-79
2022/12/04 03:33:57;;;;;;;19.20;11.30;;;2.20;1.00;;;;;;5019151;28;20061;-81
2022/12/04 03:36:29;;;;;;;20.98;11.70;;;2.30;1.00;;;;;;5016468;28;20489;-81
2022/12/04 03:39:16;;;;;;;21.50;11.57;;;2.30;1.00;;;;;;5016939;28;20030;-81
2022/12/04 03:41:54;;;;;;;34.67;18.63;;;2.30;1.00;;;;;;5016233;28;20057;-81
2022/12/04 03:44:46;;;;;;;26.52;15.23;;;2.30;1.00;;;;;;5014460;28;20056;-81
2022/12/04 03:47:24;;;;;;;28.35;18.17;;;2.30;1.00;;;;;;5016026;28;20041;-82
2022/12/04 03:49:54;;;;;;;22.38;13.65;;;2.30;1.00;;;;;;5016108;28;20471;-81
2022/12/04 03:52:33;;;;;;;19.88;12.10;;;2.30;1.00;;;;;;5012991;28;20037;-80
2022/12/04 03:55:27;;;;;;;19.77;12.15;;;2.30;1.00;;;;;;5016346;28;20060;-81
2022/12/04 03:57:58;;;;;;;20.83;11.82;;;2.20;1.00;;;;;;5016938;28;20045;-82
2022/12/04 04:00:25;;;;;;;18.75;11.30;;;2.30;1.00;;;;;;5010461;28;20386;-82
2022/12/04 04:02:58;;;;;;;18.02;10.75;;;2.30;1.00;;;;;;5037187;28;20045;-82
2022/12/04 04:05:28;;;;;;;18.70;9.85;;;2.30;1.00;;;;;;5049660;28;20048;-82
2022/12/04 04:08:24;;;;;;;22.45;10.73;;;2.20;1.00;;;;;;5055130;28;20036;-81
2022/12/04 04:10:49;;;;;;;18.10;10.48;;;2.30;1.00;;;;;;5054982;28;20044;-82
2022/12/04 04:24:42;;;;;;;17.90;10.05;;;2.20;1.00;;;;;;5039459;28;20049;-81
2022/12/04 04:27:08;;;;;;;16.33;8.73;;;2.20;1.00;;;;;;5054735;28;20382;-83
2022/12/04 04:29:35;;;;;;;17.77;10.52;;;2.20;1.00;;;;;;5055159;28;20037;-82
2022/12/04 04:32:22;;;;;;;19.60;11.27;;;2.20;1.00;;;;;;5054221;28;20029;-81
2022/12/04 04:34:52;;;;;;;14.80;9.15;;;2.20;1.00;;;;;;5054838;28;20048;-82
2022/12/04 04:37:51;;;;;;;17.33;10.48;;;2.20;1.00;;;;;;5036146;28;20143;-82
2022/12/04 04:40:35;;;;;;;16.75;9.63;;;2.20;1.00;;;;;;5054375;28;20386;-81
2022/12/04 04:43:19;;;;;;;15.90;8.90;;;2.30;1.00;;;;;;5053664;28;20041;-81
2022/12/04 04:46:10;;;;;;;16.75;8.65;;;2.20;1.00;;;;;;5054649;28;20115;-82
2022/12/04 04:48:56;;;;;;;15.32;8.65;;;2.20;1.00;;;;;;5054919;28;20033;-83
2022/12/04 04:51:23;;;;;;;15.15;8.93;;;2.20;1.00;;;;;;5034551;28;20037;-81
2022/12/04 04:53:52;;;;;;;14.80;8.27;;;2.20;1.00;;;;;;5052409;28;20040;-82
2022/12/04 04:56:21;;;;;;;13.52;7.57;;;2.20;1.00;;;;;;5053266;28;20037;-82
2022/12/04 04:58:47;;;;;;;14.45;8.90;;;2.20;1.00;;;;;;5054248;28;20036;-82
2022/12/04 05:01:16;;;;;;;15.18;8.80;;;2.20;1.00;;;;;;5053334;28;20040;-83
2022/12/04 05:03:43;;;;;;;13.25;7.00;;;2.30;1.00;;;;;;5052591;28;20496;-83
2022/12/04 05:06:09;;;;;;;12.73;8.02;;;2.30;1.00;;;;;;5054835;28;20037;-82
2022/12/04 05:08:36;;;;;;;12.43;8.13;;;2.30;1.00;;;;;;5053011;28;20052;-82
2022/12/04 05:11:03;;;;;;;14.85;8.40;;;2.30;1.00;;;;;;5053013;28;20033;-82
2022/12/04 05:13:30;;;;;;;16.70;9.73;;;2.30;1.00;;;;;;5052210;28;20037;-82
2022/12/04 05:16:05;;;;;;;15.52;7.68;;;2.30;1.00;;;;;;5061291;28;20401;-82
2022/12/04 05:18:33;;;;;;;14.77;8.70;;;2.30;1.00;;;;;;5056028;28;20033;-81
2022/12/04 05:21:05;;;;;;;13.25;7.82;;;2.30;1.00;;;;;;5056581;28;20029;-81
2022/12/04 05:23:32;;;;;;;13.45;7.72;;;2.30;1.00;;;;;;5074068;28;20029;-81
2022/12/04 05:26:04;;;;;;;10.85;7.07;;;2.30;1.00;;;;;;5068433;28;20047;-82
2022/12/04 05:28:30;;;;;;;16.33;8.57;;;2.30;1.00;;;;;;5056458;28;20032;-81
2022/12/04 05:30:59;;;;;;;14.30;7.72;;;2.30;1.10;;;;;;5053065;28;20374;-82
2022/12/04 05:33:25;;;;;;;13.15;8.10;;;2.30;2.00;;;;;;5051051;28;20044;-82
2022/12/04 05:35:58;;;;;;;14.63;9.50;;;2.30;2.20;;;;;;5053002;28;20037;-81
2022/12/04 05:38:24;;;;;;;15.85;9.27;;;2.30;2.40;;;;;;5052881;28;20033;-81
2022/12/04 05:40:50;;;;;;;13.55;8.45;;;2.30;3.80;;;;;;5053309;28;20033;-82
2022/12/04 05:43:17;;;;;;;13.75;8.55;;;2.30;4.60;;;;;;5027513;28;20041;-83
2022/12/04 05:45:43;;;;;;;15.93;8.65;;;2.30;3.90;;;;;;5036996;28;20040;-82
2022/12/04 05:48:09;;;;;;;11.30;7.32;;;2.30;4.30;;;;;;5039711;28;20029;-82
2022/12/04 05:50:37;;;;;;;14.50;8.45;;;2.30;5.30;;;;;;5053202;28;20044;-82
2022/12/04 05:53:04;;;;;;;13.82;8.38;;;2.30;6.10;;;;;;5052036;28;20048;-81
2022/12/04 05:55:30;;;;;;;13.70;7.90;;;2.30;5.10;;;;;;5052842;28;20390;-82
2022/12/04 05:57:56;;;;;;;15.23;8.18;;;2.30;3.30;;;;;;5051551;28;20037;-82
2022/12/04 06:00:22;;;;;;;13.13;7.70;;;2.30;3.90;;;;;;5052249;28;20378;-82
2022/12/04 06:02:48;;;;;;;14.13;8.85;;;2.30;2.10;;;;;;5052826;28;20052;-80
2022/12/04 06:05:15;;;;;;;13.25;8.07;;;2.40;2.10;;;;;;5053349;28;20043;-79
2022/12/04 06:07:41;;;;;;;18.73;9.02;;;2.40;2.90;;;;;;5055517;28;20025;-80
2022/12/04 06:10:07;;;;;;;11.40;7.68;;;2.40;3.50;;;;;;5051153;28;20029;-79
2022/12/04 06:12:33;;;;;;;15.13;8.52;;;2.30;3.80;;;;;;5052931;28;20060;-81
2022/12/04 06:14:59;;;;;;;15.60;8.90;;;2.40;3.30;;;;;;5052711;28;20033;-81
2022/12/04 06:17:26;;;;;;;19.40;11.25;;;2.40;1.10;;;;;;5033596;28;20047;-81
2022/12/04 06:19:52;;;;;;;13.60;8.63;;;2.40;1.80;;;;;;5051051;28;20386;-81
2022/12/04 06:22:18;;;;;;;13.82;7.53;;;2.40;1.70;;;;;;5050916;28;20482;-80
2022/12/04 06:24:44;;;;;;;13.23;8.00;;;2.40;3.00;;;;;;5052542;28;20386;-82
2022/12/04 06:27:11;;;;;;;13.95;8.35;;;2.40;5.30;;;;;;5051587;28;20037;-81
2022/12/04 06:29:37;;;;;;;11.50;7.03;;;2.40;5.60;;;;;;5062096;28;20037;-81
2022/12/04 06:32:03;;;;;;;13.30;6.88;;;2.40;7.50;;;;;;5053886;28;20378;-81
2022/12/04 06:34:29;;;;;;;13.82;8.40;;;2.40;6.80;;;;;;5053026;28;20033;-81
2022/12/04 06:36:55;;;;;;;12.88;7.63;;;2.40;8.10;;;;;;5035850;28;20041;-81
2022/12/04 06:39:22;;;;;;;11.60;7.05;;;2.40;9.20;;;;;;5050658;28;20040;-81
2022/12/04 06:41:48;;;;;;;13.02;7.30;;;2.40;9.40;;;;;;5052207;28;20040;-81
2022/12/04 06:44:15;;;;;;;12.63;7.80;;;2.40;10.20;;;;;;5051856;28;20096;-81
2022/12/04 06:46:41;;;;;;;11.18;7.15;;;2.40;10.40;;;;;;5052213;28;20037;-81
2022/12/04 06:49:09;;;;;;;17.70;7.93;;;2.40;11.50;;;;;;5050029;28;20037;-79
2022/12/04 06:51:37;;;;;;;13.90;7.28;;;2.40;11.30;;;;;;5052336;28;20044;-81
2022/12/04 06:54:03;;;;;;;12.88;7.25;;;2.40;12.10;;;;;;5051757;28;20037;-81
2022/12/04 06:56:31;;;;;;;13.65;8.27;;;2.40;11.60;;;;;;5052084;28;20036;-80
2022/12/04 06:59:01;;;;;;;14.07;7.63;;;2.40;11.40;;;;;;5058271;28;20040;-81
2022/12/04 07:01:30;;;;;;;14.98;7.47;;;2.40;12.60;;;;;;5036332;28;20053;-81
2022/12/04 07:03:57;;;;;;;13.48;8.20;;;2.40;13.00;;;;;;5052306;28;20056;-81
2022/12/04 07:06:28;;;;;;;13.10;7.80;;;2.40;12.40;;;;;;5051458;28;20481;-80
2022/12/04 07:09:01;;;;;;;13.80;6.88;;;2.40;11.90;;;;;;5050438;28;20029;-81
2022/12/04 07:11:28;;;;;;;13.00;7.13;;;2.40;12.70;;;;;;5051130;28;20324;-80
2022/12/04 07:13:54;;;;;;;12.40;6.82;;;2.50;11.70;;;;;;5051910;28;20040;-81
2022/12/04 07:16:22;;;;;;;14.43;7.28;;;2.50;11.70;;;;;;5051441;28;20040;-80
2022/12/04 07:18:55;;;;;;;14.57;7.57;;;2.50;12.20;;;;;;5050198;28;20385;-80
2022/12/04 07:21:23;;;;;;;13.77;7.47;;;2.50;11.00;;;;;;5051566;28;20060;-81
2022/12/04 07:23:58;;;;;;;10.77;7.22;;;2.50;10.50;;;;;;5051815;28;20040;-80
2022/12/04 07:26:25;;;;;;;13.15;7.25;;;2.50;10.80;;;;;;5051027;28;20131;-80
2022/12/04 07:28:52;;;;;;;15.18;7.53;;;2.50;10.50;;;;;;5050155;28;20029;-80
2022/12/04 07:31:20;;;;;;;14.85;8.27;;;2.50;10.40;;;;;;5051200;28;20477;-79
2022/12/04 07:33:47;;;;;;;12.93;7.47;;;2.50;10.30;;;;;;5051577;28;20055;-80
2022/12/04 07:36:20;;;;;;;11.65;7.43;;;2.50;10.80;;;;;;5050945;28;20037;-80
2022/12/04 07:38:47;;;;;;;11.32;6.95;;;2.50;12.40;;;;;;5050088;28;20488;-80
2022/12/04 07:41:14;;;;;;;12.40;6.80;;;2.50;13.70;;;;;;5050728;28;20029;-79
2022/12/04 07:43:40;;;;;;;13.38;6.80;;;2.50;15.40;;;;;;5051754;28;20033;-80
2022/12/04 07:46:16;;;;;;;14.45;7.90;;;2.60;16.60;;;;;;5051730;28;20049;-80
2022/12/04 07:48:43;;;;;;;14.15;7.57;;;2.50;14.80;;;;;;5053191;28;20033;-80
2022/12/04 07:51:12;;;;;;;15.02;8.27;;;2.60;15.20;;;;;;5052841;28;20454;-77
2022/12/04 07:53:39;;;;;;;15.60;8.40;;;2.50;16.00;;;;;;5036604;28;20037;-80
2022/12/04 07:56:06;;;;;;;19.23;9.02;;;2.60;17.10;;;;;;5055653;28;20032;-80
2022/12/04 07:58:33;;;;;;;13.95;8.15;;;2.60;17.60;;;;;;5053154;28;20039;-80
2022/12/04 08:01:12;;;;;;;14.52;7.00;;;2.60;18.70;;;;;;5055509;28;20385;-82
2022/12/04 08:03:40;;;;;;;15.13;8.13;;;2.60;18.60;;;;;;5054743;28;20064;-80
2022/12/04 08:06:06;;;;;;;17.55;9.18;;;2.60;18.20;;;;;;5055426;28;20037;-82
2022/12/04 08:08:34;;;;;;;13.30;8.45;;;2.60;19.20;;;;;;5053896;28;20044;-80
2022/12/04 08:11:04;;;;;;;16.15;9.80;;;2.60;19.40;;;;;;5055295;28;20029;-82
2022/12/04 08:13:30;;;;;;;20.75;10.50;;;2.60;19.00;;;;;;5054432;28;20033;-82
2022/12/04 08:15:59;;;;;;;14.18;8.75;;;2.60;19.00;;;;;;5054711;28;20390;-82
2022/12/04 08:18:26;;;;;;;14.50;8.30;;;2.60;19.40;;;;;;5035047;28;20036;-82
2022/12/04 08:20:52;;;;;;;15.40;8.50;;;2.60;19.40;;;;;;5054629;28;20032;-82
2022/12/04 08:23:18;;;;;;;15.43;8.35;;;2.60;19.50;;;;;;5036075;28;20068;-82
2022/12/04 08:25:45;;;;;;;16.80;9.43;;;2.60;19.80;;;;;;5054390;28;20033;-82
2022/12/04 08:28:11;;;;;;;17.27;8.38;;;2.60;19.10;;;;;;5053431;28;20504;-83
2022/12/04 08:30:37;;;;;;;17.38;9.23;;;2.60;19.10;;;;;;5036911;28;20025;-81
2022/12/04 08:33:03;;;;;;;15.88;9.07;;;2.60;19.90;;;;;;5054790;28;20454;-81
2022/12/04 08:35:29;;;;;;;14.55;8.65;;;2.60;20.60;;;;;;5035837;28;20473;-80
2022/12/04 08:37:56;;;;;;;18.00;9.77;;;2.70;19.60;;;;;;5052944;28;20513;-82
2022/12/04 08:40:22;;;;;;;19.77;10.68;;;2.70;18.60;;;;;;5059256;28;20473;-79
2022/12/04 08:42:48;;;;;;;17.85;9.55;;;2.60;18.50;;;;;;5056279;28;20030;-80
2022/12/04 08:45:14;;;;;;;16.67;8.68;;;2.70;18.20;;;;;;5053663;28;20029;-79
2022/12/04 08:47:40;;;;;;;16.92;8.70;;;2.70;18.70;;;;;;5052537;28;20036;-80
2022/12/04 08:50:07;;;;;;;13.13;7.82;;;2.70;18.60;;;;;;5053752;28;20037;-78
2022/12/04 08:52:33;;;;;;;15.10;8.15;;;2.70;17.90;;;;;;5053454;28;20032;-80
2022/12/04 08:54:59;;;;;;;12.57;7.80;;;2.80;17.00;;;;;;5035738;28;20497;-83
2022/12/04 08:57:25;;;;;;;16.00;7.70;;;2.70;16.40;;;;;;5052987;28;20390;-79
2022/12/04 08:59:51;;;;;;;13.80;8.23;;;2.70;17.00;;;;;;5053471;28;20036;-80
2022/12/04 09:02:18;;;;;;;13.98;8.45;;;2.70;17.60;;;;;;5053357;28;20065;-80
2022/12/04 09:04:44;;;;;;;16.23;8.43;;;2.70;17.60;;;;;;5052727;28;20040;-81
2022/12/04 09:07:10;;;;;;;13.40;7.93;;;2.70;18.50;;;;;;5054060;28;20036;-81
2022/12/04 09:09:36;;;;;;;13.68;7.70;;;2.80;17.90;;;;;;5051564;28;20032;-82
2022/12/04 09:12:02;;;;;;;13.93;7.18;;;2.80;17.60;;;;;;5053726;28;20025;-84
2022/12/04 09:14:29;;;;;;;15.10;7.75;;;2.80;18.00;;;;;;5052855;28;20041;-85
2022/12/04 09:16:55;;;;;;;15.35;6.65;;;2.80;17.60;;;;;;5053729;28;20390;-83
2022/12/04 09:19:21;;;;;;;12.63;7.80;;;2.80;18.00;;;;;;5051524;28;20778;-81
2022/12/04 09:21:47;;;;;;;15.57;8.95;;;2.80;18.10;;;;;;5043582;28;20052;-81
2022/12/04 09:24:14;;;;;;;15.27;9.00;;;2.80;17.90;;;;;;5053713;28;20388;-83
2022/12/04 09:26:41;;;;;;;13.93;8.70;;;2.90;16.90;;;;;;5053718;28;20029;-81
2022/12/04 09:29:07;;;;;;;15.85;8.07;;;2.90;17.60;;;;;;5054295;28;20040;-82
2022/12/04 09:31:33;;;;;;;12.40;6.63;;;2.90;18.00;;;;;;5057767;28;20029;-80
2022/12/04 09:34:01;;;;;;;12.93;7.03;;;2.90;15.80;;;;;;5050213;28;20052;-81
2022/12/04 09:36:27;;;;;;;15.00;8.65;;;2.90;15.80;;;;;;5072616;28;20035;-82
2022/12/04 09:38:54;;;;;;;14.05;7.63;;;2.90;17.00;;;;;;5057707;28;20025;-81
2022/12/04 09:41:35;;;;;;;16.17;9.48;;;2.90;18.10;;;;;;5052924;28;20036;-84
2022/12/04 09:44:29;;;;;;;13.73;7.47;;;2.80;16.30;;;;;;5053621;28;20051;-85
2022/12/04 09:46:59;;;;;;;16.10;8.45;;;2.80;18.60;;;;;;5053829;28;20033;-85
2022/12/04 09:49:34;;;;;;;16.20;7.70;;;2.80;20.40;;;;;;5051199;28;20381;-82
2022/12/04 09:52:07;;;;;;;18.75;9.02;;;2.80;21.20;;;;;;5053274;28;20032;-83
2022/12/04 09:54:39;;;;;;;18.70;10.13;;;2.80;21.50;;;;;;5053307;28;20064;-83
2022/12/04 09:57:15;;;;;;;18.02;9.20;;;2.80;20.40;;;;;;5036937;28;20044;-82
2022/12/04 09:59:43;;;;;;;19.98;10.15;;;2.80;21.80;;;;;;5050962;28;20033;-84
2022/12/04 10:02:30;;;;;;;18.55;8.60;;;2.80;21.20;;;;;;5051246;28;20041;-82
2022/12/04 10:04:56;;;;;;;17.00;9.40;;;2.80;21.80;;;;;;5052659;28;20037;-81
2022/12/04 10:07:30;;;;;;;21.02;10.15;;;2.70;20.30;;;;;;5050981;28;20037;-82
2022/12/04 10:10:02;;;;;;;16.65;8.45;;;2.80;20.00;;;;;;5053479;28;20044;-81
2022/12/04 10:12:40;;;;;;;18.23;9.73;;;2.70;21.60;;;;;;5054016;28;20036;-83
2022/12/04 10:15:25;;;;;;;19.55;10.68;;;2.80;20.10;;;;;;5052780;28;20037;-82
2022/12/04 10:17:58;;;;;;;18.17;10.60;;;2.80;19.80;;;;;;5051784;28;20041;-81
2022/12/04 10:20:37;;;;;;;20.30;10.35;;;2.80;19.60;;;;;;5034542;28;20053;-82
2022/12/04 10:23:12;;;;;;;16.17;9.30;;;2.90;20.60;;;;;;5056408;28;20032;-78
2022/12/04 10:25:39;;;;;;;16.98;9.23;;;2.80;19.10;;;;;;5052309;28;20450;-79
2022/12/04 10:28:19;;;;;;;17.27;9.63;;;2.90;18.80;;;;;;5033116;28;20044;-80
2022/12/04 10:30:47;;;;;;;17.38;9.68;;;2.90;18.60;;;;;;5052210;28;20029;-82
2022/12/04 10:33:17;;;;;;;19.60;11.75;;;2.90;17.10;;;;;;5018062;28;20052;-81
2022/12/04 10:35:46;;;;;;;20.85;9.95;;;2.80;16.80;;;;;;5052697;28;20048;-84
2022/12/04 10:38:36;;;;;;;18.88;10.73;;;2.80;18.40;;;;;;5051418;28;20037;-84
2022/12/04 10:41:38;;;;;;;17.45;9.82;;;2.80;17.80;;;;;;5052184;28;20040;-84
2022/12/04 10:44:05;;;;;;;19.98;9.75;;;2.80;19.50;;;;;;5053272;28;20508;-83
2022/12/04 10:46:33;;;;;;;18.75;10.15;;;2.80;17.50;;;;;;5050300;28;20085;-82
2022/12/04 10:49:08;;;;;;;21.70;10.10;;;2.80;18.30;;;;;;5055636;28;20040;-88
2022/12/04 10:51:40;;;;;;;18.48;10.48;;;2.80;16.30;;;;;;5056463;28;20037;-81
2022/12/04 10:54:39;;;;;;;19.55;10.57;;;2.80;17.80;;;;;;5049967;28;20039;-80
2022/12/04 10:57:08;;;;;;;20.42;10.77;;;2.80;17.10;;;;;;5070699;28;20469;-83
2022/12/04 10:59:46;;;;;;;18.40;10.68;;;2.80;15.90;;;;;;5058011;28;20036;-83
2022/12/04 11:02:25;;;;;;;22.60;11.00;;;2.80;16.60;;;;;;5052560;28;20048;-82
2022/12/04 11:04:58;;;;;;;21.95;10.63;;;2.80;16.60;;;;;;5051742;28;20474;-79
2022/12/04 11:07:28;;;;;;;17.95;9.77;;;2.80;15.60;;;;;;5032574;28;20053;-78
2022/12/04 11:10:02;;;;;;;19.80;9.95;;;2.80;16.30;;;;;;5052216;28;20382;-79
2022/12/04 11:12:29;;;;;;;21.10;10.95;;;2.80;15.40;;;;;;5050981;28;20045;-79
2022/12/04 11:15:00;;;;;;;18.77;10.30;;;2.80;16.20;;;;;;5051567;28;20060;-82
2022/12/04 11:17:26;;;;;;;23.45;9.57;;;2.80;16.00;;;;;;5049706;28;20045;-80
2022/12/04 11:20:01;;;;;;;18.90;10.30;;;2.80;16.70;;;;;;5033318;28;20071;-84
2022/12/04 11:22:27;;;;;;;17.80;10.27;;;2.80;16.70;;;;;;5051674;28;20041;-87
2022/12/04 11:24:57;;;;;;;21.92;9.98;;;2.80;16.50;;;;;;5033776;28;20049;-84
2022/12/04 11:27:33;;;;;;;16.77;10.15;;;2.80;16.20;;;;;;5051084;28;20044;-82
2022/12/04 11:30:25;;;;;;;18.90;10.63;;;2.70;18.20;;;;;;5037712;28;20056;-83
2022/12/04 11:32:53;;;;;;;22.50;11.50;;;2.80;18.80;;;;;;5045454;28;20048;-83
2022/12/04 11:35:28;;;;;;;22.70;9.70;;;2.80;18.10;;;;;;5036861;28;20037;-80
2022/12/04 11:38:15;;;;;;;20.98;9.55;;;2.80;19.80;;;;;;5034919;28;20033;-80
2022/12/04 11:40:51;;;;;;;21.27;9.73;;;2.90;19.60;;;;;;5037008;28;20040;-82
2022/12/04 11:43:18;;;;;;;20.38;10.23;;;2.80;17.60;;;;;;5055129;28;20496;-81
2022/12/04 11:45:57;;;;;;;19.35;10.57;;;2.90;18.60;;;;;;5055281;28;20033;-81
2022/12/04 11:48:25;;;;;;;20.30;10.07;;;2.80;19.00;;;;;;5053362;28;20059;-81
2022/12/04 11:51:11;;;;;;;18.25;9.85;;;2.80;19.60;;;;;;5055317;28;20494;-84
2022/12/04 11:53:43;;;;;;;20.48;10.00;;;2.80;19.20;;;;;;5037723;28;20299;-83
2022/12/04 11:56:41;;;;;;;21.20;10.85;;;2.80;19.90;;;;;;5036889;28;20049;-81
2022/12/04 11:59:31;;;;;;;18.70;10.40;;;2.90;21.10;;;;;;5037157;28;20045;-82
2022/12/04 12:02:19;;;;;;;21.35;10.85;;;2.80;21.40;;;;;;5056122;28;20033;-81
2022/12/04 12:04:59;;;;;;;24.27;10.98;;;2.80;23.60;;;;;;5059622;28;20378;-82
2022/12/04 12:07:50;;;;;;;22.65;11.48;;;2.80;23.80;;;;;;5055101;28;20044;-81
2022/12/04 12:10:32;;;;;;;23.50;11.57;;;2.80;24.20;;;;;;5057541;28;20108;-83
2022/12/04 12:13:27;;;;;;;23.77;12.00;;;2.80;24.30;;;;;;5055134;28;20025;-83
2022/12/04 12:16:22;;;;;;;20.90;10.45;;;2.80;25.60;;;;;;5054744;28;20386;-83
2022/12/04 12:19:16;;;;;;;21.10;10.70;;;2.80;26.10;;;;;;5055010;28;20041;-83
2022/12/04 12:22:14;;;;;;;27.00;12.73;;;2.80;27.30;;;;;;5054283;28;20029;-81
2022/12/04 12:25:02;;;;;;;22.70;12.00;;;2.80;27.30;;;;;;5053927;28;20378;-81
2022/12/04 12:27:47;;;;;;;23.15;11.63;;;2.80;27.90;;;;;;5053221;28;20040;-81
2022/12/04 12:30:20;;;;;;;19.58;10.93;;;2.80;28.30;;;;;;5056696;28;20052;-81
2022/12/04 12:33:02;;;;;;;26.27;11.25;;;2.80;29.40;;;;;;5056500;28;20039;-83
2022/12/04 12:35:46;;;;;;;17.92;10.93;;;2.80;28.70;;;;;;5053488;28;20385;-80
2022/12/04 12:38:36;;;;;;;20.45;11.73;;;2.80;29.70;;;;;;5052223;28;20025;-82
2022/12/04 12:41:29;;;;;;;18.95;10.20;;;2.90;30.00;;;;;;5022258;28;20032;-81
2022/12/04 12:44:03;;;;;;;30.08;12.30;;;2.90;30.00;;;;;;5043194;28;20482;-83
2022/12/04 12:46:47;;;;;;;20.08;11.52;;;2.90;30.40;;;;;;5040849;28;20025;-80
2022/12/04 12:49:20;;;;;;;19.92;10.18;;;2.80;30.00;;;;;;5037488;28;20044;-82
2022/12/04 12:51:49;;;;;;;24.58;11.95;;;2.80;31.80;;;;;;5052800;28;20025;-85
2022/12/04 12:54:37;;;;;;;23.58;12.55;;;2.80;34.30;;;;;;5053323;28;20095;-84
2022/12/04 12:57:17;;;;;;;25.80;12.73;;;2.70;34.70;;;;;;5052225;28;20029;-84
2022/12/04 12:59:49;;;;;;;24.33;12.38;;;2.70;37.60;;;;;;5051158;28;20037;-83
2022/12/04 13:02:28;;;;;;;34.75;16.02;;;2.70;39.80;;;;;;5035824;28;20512;-83
2022/12/04 13:05:03;;;;;;;25.55;14.27;;;2.70;41.30;;;;;;5053962;28;20040;-84
2022/12/04 13:07:49;;;;;;;25.02;11.82;;;2.70;42.60;;;;;;5051334;28;20342;-82
2022/12/04 13:10:22;;;;;;;22.55;11.75;;;2.80;44.20;;;;;;5053742;28;20447;-82
2022/12/04 13:13:16;;;;;;;23.02;11.88;;;2.70;43.40;;;;;;5052997;28;20351;-81
2022/12/04 13:15:54;;;;;;;25.17;12.68;;;2.80;45.20;;;;;;5052058;28;20037;-82
2022/12/04 13:18:37;;;;;;;26.02;13.20;;;2.80;46.00;;;;;;5050731;28;20033;-82
2022/12/04 13:21:05;;;;;;;23.75;12.45;;;2.80;46.40;;;;;;5053100;28;20025;-83
2022/12/04 13:23:58;;;;;;;26.30;12.38;;;2.70;46.80;;;;;;5042572;28;20037;-83
2022/12/04 13:26:30;;;;;;;26.98;13.70;;;2.70;50.50;;;;;;5053510;28;20040;-86